createdAt,value
2022-08-05T00:01:27.910Z,21.65
2022-08-05T00:06:33.192Z,21.54
2022-08-05T00:11:48.214Z,21.48
2022-08-05T00:16:53.030Z,21.36
2022-08-05T00:21:55.571Z,21.27
2022-08-05T00:26:57.321Z,21.16
2022-08-05T00:32:12.596Z,21.01
2022-08-05T00:37:15.973Z,20.85
2022-08-05T00:42:31.928Z,20.70
2022-08-05T00:47:56.302Z,20.63
2022-08-05T00:52:55.815Z,20.59
2022-08-05T00:57:58.980Z,20.74
2022-08-05T01:03:01.007Z,20.97
2022-08-05T01:08:40.391Z,20.87
2022-08-05T01:13:58.735Z,20.77
2022-08-05T01:18:56.606Z,20.54
2022-08-05T01:24:14.424Z,20.43
2022-08-05T01:29:23.238Z,20.17
2022-08-05T01:34:27.119Z,19.98
2022-08-05T01:39:47.287Z,19.92
2022-08-05T01:44:54.060Z,19.87
2022-08-05T01:50:01.704Z,19.77
2022-08-05T01:55:06.801Z,19.73
2022-08-05T02:00:11.617Z,19.68
2022-08-05T02:05:14.025Z,19.65
2022-08-05T02:10:17.562Z,19.67
2022-08-05T02:15:26.487Z,19.76
2022-08-05T02:20:40.506Z,19.79
2022-08-05T02:25:50.174Z,19.72
2022-08-05T02:30:56.539Z,19.66
2022-08-05T02:36:01.109Z,19.54
2022-08-05T02:41:14.543Z,19.53
2022-08-05T02:46:18.795Z,19.48
2022-08-05T02:52:03.233Z,19.45
2022-08-05T02:56:51.136Z,19.45
2022-08-05T03:01:54.297Z,19.33
2022-08-05T03:06:59.334Z,19.43
2022-08-05T03:12:01.893Z,19.46
2022-08-05T03:17:08.706Z,19.42
2022-08-05T03:22:16.234Z,19.54
2022-08-05T03:27:21.861Z,19.70
2022-08-05T03:32:30.680Z,19.58
2022-08-05T03:37:45.702Z,19.03
2022-08-05T03:42:51.670Z,18.75
2022-08-05T03:47:56.709Z,18.70
2022-08-05T03:54:59.154Z,18.85
2022-08-05T03:58:28.965Z,18.83
2022-08-05T04:03:35.849Z,18.81
2022-08-05T04:08:39.871Z,18.78
2022-08-05T04:13:50.487Z,18.70
2022-08-05T04:18:54.778Z,18.66
2022-08-05T04:24:06.650Z,18.50
2022-08-05T04:29:08.753Z,18.53
2022-08-05T04:34:19.082Z,18.48
2022-08-05T04:39:33.522Z,18.64
2022-08-05T04:44:37.319Z,18.74
2022-08-05T04:50:02.977Z,18.96
2022-08-05T04:55:13.761Z,18.99
2022-08-05T05:00:16.872Z,19.02
2022-08-05T05:05:28.779Z,18.94
2022-08-05T05:10:33.137Z,18.93
2022-08-05T05:15:59.272Z,18.99
2022-08-05T05:20:57.322Z,18.79
2022-08-05T05:26:00.378Z,18.67
2022-08-05T05:31:02.336Z,18.73
2022-08-05T05:36:07.825Z,18.62
2022-08-05T05:41:12.262Z,18.46
2022-08-05T05:46:18.919Z,18.35
2022-08-05T05:51:21.717Z,18.46
2022-08-05T05:56:26.120Z,18.36
2022-08-05T06:01:37.495Z,18.42
2022-08-05T06:06:41.842Z,18.45
2022-08-05T06:11:58.939Z,18.49
2022-08-05T06:17:22.301Z,18.58
2022-08-05T06:22:29.754Z,18.79
2022-08-05T06:28:10.473Z,18.92
2022-08-05T06:32:53.493Z,19.06
2022-08-05T06:37:58.403Z,19.00
2022-08-05T06:43:00.673Z,18.98
2022-08-05T06:48:36.110Z,18.95
2022-08-05T06:53:27.726Z,18.86
2022-08-05T06:58:36.363Z,18.94
2022-08-05T07:03:38.320Z,18.92
2022-08-05T07:08:40.029Z,18.96
2022-08-05T07:14:02.260Z,18.87
2022-08-05T07:19:04.236Z,18.75
2022-08-05T07:24:11.177Z,18.70
2022-08-05T07:29:13.496Z,18.82
2022-08-05T07:34:15.516Z,18.88
2022-08-05T07:39:24.678Z,18.88
2022-08-05T07:44:46.331Z,18.89
2022-08-05T07:49:54.245Z,18.80
2022-08-05T07:54:57.044Z,19.06
2022-08-05T07:59:59.721Z,19.27
2022-08-05T08:05:01.598Z,19.43
2022-08-05T08:10:03.639Z,19.60
2022-08-05T08:15:14.301Z,19.72
2022-08-05T08:20:43.194Z,19.73
2022-08-05T08:25:59.795Z,19.70
2022-08-05T08:31:01.187Z,19.48
2022-08-05T08:36:29.723Z,19.53
2022-08-05T08:41:50.721Z,19.50
2022-08-05T08:46:48.018Z,19.46
2022-08-05T08:52:03.433Z,19.38
2022-08-05T08:57:11.314Z,19.46
2022-08-05T09:02:14.486Z,19.66
2022-08-05T09:07:28.533Z,19.74
2022-08-05T09:12:31.340Z,19.82
2022-08-05T09:17:42.826Z,19.83
2022-08-05T09:23:05.555Z,19.48
2022-08-05T09:28:14.993Z,19.57
2022-08-05T09:33:23.511Z,19.55
2022-08-05T09:38:36.718Z,19.93
2022-08-05T09:43:41.659Z,20.08
2022-08-05T09:48:55.122Z,20.36
2022-08-05T09:54:08.392Z,20.27
2022-08-05T09:59:17.265Z,20.17
2022-08-05T10:04:19.324Z,20.03
2022-08-05T10:09:44.919Z,19.87
2022-08-05T10:14:47.243Z,19.71
2022-08-05T10:20:04.458Z,19.68
2022-08-05T10:25:14.387Z,19.68
2022-08-05T10:31:20.102Z,19.78
2022-08-05T10:35:40.668Z,19.91
2022-08-05T10:40:52.118Z,19.85
2022-08-05T10:46:06.706Z,19.89
2022-08-05T10:51:21.942Z,19.78
2022-08-05T10:56:36.376Z,19.82
2022-08-05T11:01:55.662Z,19.80
2022-08-05T11:07:05.492Z,19.83
2022-08-05T11:12:43.815Z,20.02
2022-08-05T11:17:56.878Z,20.09
2022-08-05T11:23:33.626Z,19.98
2022-08-05T11:28:51.382Z,19.81
2022-08-05T11:33:56.042Z,19.64
2022-08-05T11:39:00.371Z,19.39
2022-08-05T11:44:08.273Z,19.04
2022-08-05T11:49:14.076Z,18.97
2022-08-05T11:54:33.931Z,18.84
2022-08-05T11:59:41.339Z,18.61
2022-08-05T12:04:53.474Z,18.21
2022-08-05T12:10:09.042Z,18.09
2022-08-05T12:15:38.353Z,18.00
2022-08-05T12:20:41.823Z,18.13
2022-08-05T12:25:53.638Z,18.15
2022-08-05T12:31:02.476Z,18.08
2022-08-05T12:36:08.600Z,18.08
2022-08-05T12:41:13.516Z,18.12
2022-08-05T12:46:29.422Z,18.27
2022-08-05T12:52:12.603Z,18.26
2022-08-05T12:56:55.435Z,18.16
2022-08-05T13:02:07.162Z,18.06
2022-08-05T13:07:16.126Z,18.02
2022-08-05T13:12:20.155Z,18.12
2022-08-05T13:17:31.646Z,18.30
2022-08-05T13:22:43.980Z,18.31
2022-08-05T13:27:53.736Z,18.26
2022-08-05T13:32:56.511Z,18.50
2022-08-05T13:37:58.400Z,18.63
2022-08-05T13:43:12.130Z,18.80
2022-08-05T13:48:57.908Z,18.99
2022-08-05T13:53:48.221Z,19.01
2022-08-05T13:58:53.311Z,19.24
2022-08-05T14:04:14.083Z,19.45
2022-08-05T14:09:16.208Z,19.62
2022-08-05T14:14:23.281Z,19.52
2022-08-05T14:19:27.882Z,19.35
2022-08-05T14:24:30.667Z,19.34
2022-08-05T14:29:34.549Z,19.22
2022-08-05T14:34:36.314Z,19.10
2022-08-05T14:39:49.610Z,19.02
2022-08-05T14:44:58.419Z,18.84
2022-08-05T14:50:06.684Z,18.87
2022-08-05T14:55:16.264Z,18.96
2022-08-05T15:00:21.410Z,18.93
2022-08-05T15:06:08.379Z,18.83
2022-08-05T15:10:52.007Z,19.13
2022-08-05T15:15:56.583Z,19.32
2022-08-05T15:20:58.403Z,19.26
2022-08-05T15:26:09.485Z,19.19
2022-08-05T15:31:11.640Z,19.34
2022-08-05T15:36:17.447Z,19.45
2022-08-05T15:41:27.401Z,19.12
2022-08-05T15:46:49.144Z,19.18
2022-08-05T15:52:13.080Z,19.08
2022-08-05T15:57:16.044Z,19.12
2022-08-05T16:02:19.484Z,19.31
2022-08-05T16:07:29.541Z,19.52
2022-08-05T16:12:31.484Z,19.44
2022-08-05T16:17:33.771Z,19.43
2022-08-05T16:22:36.032Z,19.45
2022-08-05T16:28:00.851Z,19.47
2022-08-05T16:33:01.635Z,19.52
2022-08-05T16:38:18.420Z,19.63
2022-08-05T16:43:25.430Z,19.76
2022-08-05T16:48:33.578Z,19.98
2022-08-05T16:54:05.331Z,20.06
2022-08-05T16:59:08.492Z,20.08
2022-08-05T17:04:10.517Z,20.02
2022-08-05T17:09:12.211Z,19.98
2022-08-05T17:14:22.148Z,20.01
2022-08-05T17:19:36.410Z,19.85
2022-08-05T17:24:40.951Z,19.86
2022-08-05T17:29:50.177Z,20.00
2022-08-05T17:35:01.531Z,20.30
2022-08-05T17:40:05.490Z,20.61
2022-08-05T17:45:17.837Z,21.02
2022-08-05T17:50:28.910Z,21.16
2022-08-05T17:55:34.296Z,21.25
2022-08-05T18:00:45.489Z,21.16
2022-08-05T18:05:53.430Z,21.13
2022-08-05T18:10:56.064Z,21.05
2022-08-05T18:15:59.143Z,21.09
2022-08-05T18:21:00.875Z,21.06
2022-08-05T18:26:03.500Z,20.93
2022-08-05T18:31:07.198Z,20.91
2022-08-05T18:36:15.307Z,20.68
2022-08-05T18:41:54.956Z,20.39
2022-08-05T18:46:41.053Z,20.14
2022-08-05T18:52:08.998Z,20.00
2022-08-05T18:57:15.353Z,19.87
2022-08-05T19:02:28.299Z,19.84
2022-08-05T19:07:45.174Z,19.62
2022-08-05T19:12:48.560Z,19.29
2022-08-05T19:18:08.498Z,19.04
2022-08-05T19:24:03.861Z,18.79
2022-08-05T19:28:34.928Z,18.66
2022-08-05T19:33:38.046Z,18.58
2022-08-05T19:38:43.683Z,18.33
2022-08-05T19:44:05.506Z,18.17
2022-08-05T19:49:07.124Z,18.02
2022-08-05T19:54:25.517Z,17.79
2022-08-05T19:59:56.131Z,17.57
2022-08-05T20:04:58.685Z,17.46
2022-08-05T20:10:01.256Z,17.32
2022-08-05T20:15:03.024Z,17.21
2022-08-05T20:20:09.507Z,17.09
2022-08-05T20:25:12.825Z,17.03
2022-08-05T20:30:14.528Z,16.95
2022-08-05T20:35:19.967Z,16.83
2022-08-05T20:40:21.673Z,16.71
2022-08-05T20:45:23.333Z,16.61
2022-08-05T20:50:45.577Z,16.55
2022-08-05T20:55:56.663Z,16.44
2022-08-05T21:01:10.303Z,16.32
2022-08-05T21:06:27.819Z,16.23
2022-08-05T21:12:10.424Z,16.09
2022-08-05T21:16:52.196Z,16.05
2022-08-05T21:21:54.184Z,15.95
2022-08-05T21:26:58.314Z,15.88
2022-08-05T21:32:03.542Z,15.77
2022-08-05T21:37:05.334Z,15.70
2022-08-05T21:42:07.331Z,15.60
2022-08-05T21:47:55.603Z,15.57
2022-08-05T21:52:50.713Z,15.43
2022-08-05T21:57:52.691Z,15.28
2022-08-05T22:02:55.352Z,15.20
2022-08-05T22:07:59.470Z,15.07
2022-08-05T22:13:08.846Z,15.02
2022-08-05T22:18:25.792Z,14.95
2022-08-05T22:24:02.320Z,14.92
2022-08-05T22:29:05.617Z,14.85
2022-08-05T22:34:07.292Z,14.76
2022-08-05T22:39:12.697Z,14.69
2022-08-05T22:44:14.579Z,14.70
2022-08-05T22:49:46.139Z,14.67
2022-08-05T22:54:46.689Z,14.58
2022-08-05T22:59:54.093Z,14.56
2022-08-05T23:04:56.314Z,14.45
2022-08-05T23:10:01.575Z,14.45
2022-08-05T23:15:09.011Z,14.43
2022-08-05T23:20:17.934Z,14.38
2022-08-05T23:25:52.197Z,14.17
2022-08-05T23:30:43.326Z,14.08
2022-08-05T23:35:45.687Z,14.01
2022-08-05T23:40:50.194Z,13.93
2022-08-05T23:45:52.208Z,13.93
2022-08-05T23:50:55.068Z,13.95
2022-08-05T23:55:57.170Z,13.85
